Terminal Aerodrome Forecast
Issued by NWS Pocatello, ID

Home | Current Version | Previous Version | Text Only | Print | Product List | Glossary On
Versions: 1 2 3 4 5 6 7 8 9 10 11 12 13 14 15
000
FTUS45 KPIH 161100
TAFBYI
TAF
KBYI 161120Z 1612/1712 26006KT P6SM BKN150
     FM161900 27011KT P6SM BKN150
     FM170200 23007KT P6SM BKN120=

USA.gov is the U.S. government's official web portal to all federal, state and local government web resources and services.